Time;durP1;ratioP1;P1;durP2;ratioP2;P2;SDS_P1;SDS_P2;PMS_P1;PMS_P2;Temp;Humidity;BMP_temperature;BMP_pressure;BME280_temperature;BME280_humidity;BME280_pressure;Samples;Min_cycle;Max_cycle;Signal;HPM_P1;HPM_P2
2022/02/19 00:00:11;;;;;;;8.30;1.47;;;6.10;79.40;;;;;;4993233;28;20431;-59
2022/02/19 00:02:37;;;;;;;4.00;1.77;;;6.10;80.10;;;;;;5003317;28;20483;-59
2022/02/19 00:05:03;;;;;;;4.53;1.70;;;6.10;79.70;;;;;;4988659;28;20487;-60
2022/02/19 00:07:28;;;;;;;4.70;1.47;;;6.10;78.60;;;;;;4990429;28;20562;-59
2022/02/19 00:09:54;;;;;;;4.80;1.77;;;6.10;78.70;;;;;;4989756;28;20166;-59
2022/02/19 00:12:19;;;;;;;5.20;1.80;;;6.10;77.90;;;;;;4989927;28;20586;-60
2022/02/19 00:14:45;;;;;;;5.80;1.60;;;6.00;78.10;;;;;;4988366;28;20181;-59
2022/02/19 00:17:11;;;;;;;5.13;1.80;;;6.00;78.10;;;;;;4990343;28;20534;-59
2022/02/19 00:19:36;;;;;;;5.80;1.53;;;6.00;77.70;;;;;;4996645;28;20184;-59
2022/02/19 00:22:02;;;;;;;11.23;1.90;;;6.10;76.90;;;;;;5003149;28;20795;-61
2022/02/19 00:24:28;;;;;;;7.70;2.00;;;6.10;75.80;;;;;;4991349;28;20753;-60
2022/02/19 00:26:54;;;;;;;5.67;1.70;;;6.10;74.60;;;;;;4990277;28;20571;-59
2022/02/19 00:29:20;;;;;;;3.00;1.70;;;6.10;74.00;;;;;;4986310;28;20181;-59
2022/02/19 00:31:46;;;;;;;8.77;1.57;;;6.00;74.60;;;;;;4982386;28;20416;-59
2022/02/19 00:34:12;;;;;;;2.47;1.70;;;6.10;74.90;;;;;;4990151;28;20452;-59
2022/02/19 00:36:37;;;;;;;4.40;1.60;;;6.10;74.30;;;;;;5005308;28;20591;-59
2022/02/19 00:39:04;;;;;;;3.00;1.90;;;6.10;74.70;;;;;;4987653;28;20212;-59
2022/02/19 00:41:30;;;;;;;5.30;2.50;;;6.00;74.10;;;;;;4991540;28;20176;-59
2022/02/19 00:43:57;;;;;;;2.70;1.40;;;6.00;75.70;;;;;;4985583;28;20467;-59
2022/02/19 00:46:23;;;;;;;5.43;1.33;;;6.00;77.60;;;;;;4990680;28;20184;-60
2022/02/19 00:48:49;;;;;;;3.07;1.30;;;5.90;79.70;;;;;;4985338;28;20516;-59
2022/02/19 00:51:16;;;;;;;2.77;1.20;;;5.90;81.80;;;;;;4988542;28;20510;-59
2022/02/19 00:53:41;;;;;;;5.30;1.63;;;5.90;83.00;;;;;;4987949;28;20732;-59
2022/02/19 00:56:09;;;;;;;4.27;1.90;;;5.90;83.80;;;;;;4989788;28;20455;-60
2022/02/19 00:58:36;;;;;;;6.97;1.70;;;5.90;82.00;;;;;;4990952;28;20193;-61
2022/02/19 01:01:02;;;;;;;10.80;1.87;;;5.80;77.10;;;;;;4991890;28;20834;-60
2022/02/19 01:03:28;;;;;;;7.80;1.90;;;5.80;72.00;;;;;;4996058;28;21043;-60
2022/02/19 01:05:54;;;;;;;4.83;1.90;;;5.80;71.40;;;;;;4992822;28;20547;-60
2022/02/19 01:08:19;;;;;;;8.90;2.23;;;5.80;70.70;;;;;;4985278;28;20912;-60
2022/02/19 01:10:45;;;;;;;7.40;2.13;;;5.80;70.20;;;;;;4988486;28;20173;-59
2022/02/19 01:13:11;;;;;;;5.40;1.83;;;5.80;70.60;;;;;;4991872;28;20193;-59
2022/02/19 01:15:36;;;;;;;4.50;1.70;;;5.80;69.90;;;;;;4992199;28;20205;-60
2022/02/19 01:18:02;;;;;;;10.40;2.47;;;5.80;69.90;;;;;;4983949;28;20182;-59
2022/02/19 01:20:28;;;;;;;8.57;2.00;;;5.90;69.90;;;;;;4981162;28;20181;-60
2022/02/19 01:22:54;;;;;;;5.03;1.73;;;5.80;69.60;;;;;;4996493;28;20211;-59
2022/02/19 01:25:19;;;;;;;7.23;1.80;;;5.90;68.20;;;;;;5006252;28;20196;-59
2022/02/19 01:27:45;;;;;;;4.93;2.00;;;5.80;68.40;;;;;;4989117;28;20251;-60
2022/02/19 01:30:11;;;;;;;5.23;1.80;;;5.80;68.60;;;;;;4988332;28;20676;-59
2022/02/19 01:32:36;;;;;;;5.53;1.57;;;5.90;67.70;;;;;;4989912;28;20740;-59
2022/02/19 01:35:02;;;;;;;15.10;2.07;;;5.90;68.20;;;;;;4988037;28;20177;-59
2022/02/19 01:37:28;;;;;;;9.53;2.03;;;5.90;67.80;;;;;;4989703;28;20676;-60
2022/02/19 01:39:54;;;;;;;6.87;1.77;;;5.90;67.70;;;;;;4986948;28;20896;-59
2022/02/19 01:42:19;;;;;;;5.40;1.90;;;5.90;66.70;;;;;;4996332;28;20212;-60
2022/02/19 01:44:47;;;;;;;3.13;1.40;;;5.80;66.40;;;;;;4990777;28;20208;-60
2022/02/19 01:47:13;;;;;;;3.90;1.63;;;5.80;65.90;;;;;;4991398;28;20184;-60
2022/02/19 01:49:39;;;;;;;3.57;1.73;;;5.90;64.90;;;;;;4986583;28;20433;-59
2022/02/19 01:52:10;;;;;;;4.13;1.90;;;5.90;65.20;;;;;;4987705;28;20446;-60
2022/02/19 01:54:36;;;;;;;9.27;1.63;;;5.80;65.40;;;;;;4990244;28;20195;-60
2022/02/19 01:57:02;;;;;;;10.20;2.00;;;5.80;66.10;;;;;;4988513;28;20432;-59
2022/02/19 01:59:29;;;;;;;7.10;2.50;;;5.80;66.70;;;;;;4987161;28;20495;-61
2022/02/19 02:01:54;;;;;;;3.93;1.67;;;5.80;66.60;;;;;;4987077;28;20487;-59
2022/02/19 02:04:20;;;;;;;4.27;1.60;;;5.80;66.70;;;;;;4988928;28;20512;-60
2022/02/19 02:06:48;;;;;;;5.00;1.87;;;5.80;67.10;;;;;;4988847;28;20184;-60
2022/02/19 02:09:17;;;;;;;2.90;2.10;;;5.70;67.00;;;;;;4987587;28;20240;-60
2022/02/19 02:11:44;;;;;;;8.70;1.80;;;5.80;67.60;;;;;;4989694;28;20464;-60
2022/02/19 02:14:10;;;;;;;8.33;2.10;;;5.70;66.40;;;;;;4980428;28;20440;-60
2022/02/19 02:16:40;;;;;;;8.60;1.97;;;5.70;65.30;;;;;;4987816;28;20432;-59
2022/02/19 02:19:08;;;;;;;5.10;1.87;;;5.60;62.30;;;;;;4985382;28;20192;-59
2022/02/19 02:21:35;;;;;;;9.73;2.27;;;5.60;61.40;;;;;;5001804;28;20423;-59
2022/02/19 02:24:01;;;;;;;4.10;1.63;;;5.60;60.40;;;;;;5006257;28;20451;-59
2022/02/19 02:26:28;;;;;;;5.70;1.70;;;5.60;60.60;;;;;;4992462;28;20516;-60
2022/02/19 02:28:54;;;;;;;8.77;1.97;;;5.60;60.10;;;;;;4991446;28;20507;-60
2022/02/19 02:31:21;;;;;;;6.10;1.60;;;5.50;59.90;;;;;;4991813;28;20527;-59
2022/02/19 02:33:48;;;;;;;3.00;1.60;;;5.50;59.70;;;;;;4991293;28;20452;-59
2022/02/19 02:36:14;;;;;;;8.13;2.13;;;5.50;59.10;;;;;;4985213;28;20477;-60
2022/02/19 02:38:40;;;;;;;6.20;1.60;;;5.50;58.60;;;;;;4991645;28;20428;-59
2022/02/19 02:41:06;;;;;;;5.03;1.90;;;5.50;58.80;;;;;;4989398;28;20443;-60
2022/02/19 02:43:31;;;;;;;7.90;1.73;;;5.40;59.00;;;;;;5030780;22;20254;-58
2022/02/19 02:45:57;;;;;;;4.50;1.87;;;5.50;59.30;;;;;;5025019;28;20625;-56
2022/02/19 02:48:23;;;;;;;5.00;1.50;;;5.50;59.40;;;;;;5027804;28;20203;-56
2022/02/19 02:50:49;;;;;;;3.93;1.80;;;5.50;59.30;;;;;;5019221;28;20161;-58
2022/02/19 02:53:15;;;;;;;2.53;1.57;;;5.50;59.30;;;;;;5022396;28;20275;-58
2022/02/19 02:55:41;;;;;;;5.50;1.80;;;5.50;59.30;;;;;;5018987;28;21008;-56
2022/02/19 02:58:06;;;;;;;9.53;1.80;;;5.50;59.20;;;;;;5000295;28;20176;-59
2022/02/19 03:00:33;;;;;;;5.77;2.27;;;5.50;59.20;;;;;;5010691;28;20186;-58
2022/02/19 03:02:58;;;;;;;8.50;2.60;;;5.50;59.30;;;;;;5009653;28;20184;-57
2022/02/19 03:05:25;;;;;;;8.17;1.60;;;5.50;59.40;;;;;;5013883;28;20450;-59
2022/02/19 03:07:51;;;;;;;5.33;1.70;;;5.50;59.40;;;;;;5026617;28;20199;-58
2022/02/19 03:10:18;;;;;;;6.23;2.27;;;5.40;59.30;;;;;;5014508;28;20412;-57
2022/02/19 03:12:48;;;;;;;4.03;1.67;;;5.40;59.60;;;;;;5025743;28;20436;-59
2022/02/19 03:15:18;;;;;;;5.23;2.00;;;5.40;59.70;;;;;;5019517;28;20490;-58
2022/02/19 03:17:45;;;;;;;5.50;2.10;;;5.40;59.60;;;;;;5019569;28;20507;-58
2022/02/19 03:20:19;;;;;;;10.83;2.20;;;5.40;60.10;;;;;;5008600;28;20427;-58
2022/02/19 03:22:46;;;;;;;7.37;1.97;;;5.40;60.30;;;;;;5004133;28;20430;-56
2022/02/19 03:25:16;;;;;;;5.17;2.03;;;5.40;60.30;;;;;;5016429;28;20561;-59
2022/02/19 03:27:43;;;;;;;6.20;1.83;;;5.40;59.70;;;;;;5006695;28;20455;-58
2022/02/19 03:30:11;;;;;;;9.13;1.93;;;5.30;59.90;;;;;;5013470;28;20430;-57
2022/02/19 03:32:37;;;;;;;7.03;1.73;;;5.40;59.50;;;;;;5016071;28;21115;-55
2022/02/19 03:35:04;;;;;;;11.53;2.00;;;5.30;59.10;;;;;;5023571;28;20474;-58
2022/02/19 03:37:34;;;;;;;6.13;1.87;;;5.30;59.20;;;;;;5007642;28;20432;-58
2022/02/19 03:40:06;;;;;;;9.50;2.13;;;5.30;59.60;;;;;;5028706;28;20419;-58
2022/02/19 03:42:35;;;;;;;12.80;2.60;;;5.30;59.50;;;;;;5014858;28;20428;-58
2022/02/19 03:45:01;;;;;;;4.50;1.83;;;5.30;59.50;;;;;;5008467;28;20490;-58
2022/02/19 03:47:27;;;;;;;8.13;2.17;;;5.30;59.40;;;;;;5010325;28;20438;-57
2022/02/19 03:49:52;;;;;;;7.30;2.37;;;5.30;59.50;;;;;;5008925;28;20920;-58
2022/02/19 03:52:18;;;;;;;10.20;2.50;;;5.20;59.40;;;;;;5013283;28;20832;-57
2022/02/19 03:54:44;;;;;;;4.30;1.90;;;5.30;59.60;;;;;;5023118;28;20208;-59
2022/02/19 03:57:09;;;;;;;4.60;1.50;;;5.20;59.50;;;;;;5026821;28;20196;-59
2022/02/19 03:59:35;;;;;;;11.13;2.03;;;5.20;59.10;;;;;;5003242;28;20202;-59
2022/02/19 04:02:01;;;;;;;8.17;1.80;;;5.20;59.20;;;;;;5014757;28;20648;-58
2022/02/19 04:04:26;;;;;;;5.60;2.10;;;5.20;59.40;;;;;;5016137;28;20299;-59
2022/02/19 04:06:52;;;;;;;6.17;1.93;;;5.20;59.60;;;;;;5010661;28;20196;-58
2022/02/19 04:09:17;;;;;;;8.20;2.20;;;5.20;59.60;;;;;;5014473;28;20662;-59
2022/02/19 04:11:43;;;;;;;6.30;2.23;;;5.20;59.80;;;;;;5011031;28;20187;-58
2022/02/19 04:14:09;;;;;;;9.20;2.40;;;5.20;59.50;;;;;;5010845;28;20196;-58
2022/02/19 04:16:34;;;;;;;6.23;2.43;;;5.10;59.40;;;;;;5007276;28;20252;-58
2022/02/19 04:19:00;;;;;;;4.83;1.90;;;5.10;59.30;;;;;;5009556;28;20180;-57
2022/02/19 04:21:26;;;;;;;7.90;1.90;;;5.10;59.30;;;;;;5016614;28;20629;-58
2022/02/19 04:23:52;;;;;;;7.17;2.33;;;5.10;59.50;;;;;;5013932;28;20200;-56
2022/02/19 04:26:18;;;;;;;7.73;2.30;;;5.10;59.60;;;;;;5012317;28;20246;-59
2022/02/19 04:28:44;;;;;;;12.23;2.60;;;5.10;59.50;;;;;;4999314;28;20969;-57
2022/02/19 04:31:10;;;;;;;12.40;2.50;;;5.10;58.80;;;;;;5014555;28;20427;-58
2022/02/19 04:33:35;;;;;;;7.37;2.17;;;5.00;58.70;;;;;;5017181;28;20203;-55
2022/02/19 04:36:01;;;;;;;11.27;1.73;;;5.00;58.50;;;;;;5008677;28;20187;-59
2022/02/19 04:38:28;;;;;;;8.00;2.30;;;5.00;57.90;;;;;;5009510;28;20184;-60
2022/02/19 04:40:53;;;;;;;10.83;1.90;;;4.90;58.10;;;;;;5031053;28;20184;-59
2022/02/19 04:43:19;;;;;;;5.67;1.83;;;4.90;58.00;;;;;;5020093;28;21051;-58
2022/02/19 04:45:45;;;;;;;5.20;2.07;;;4.90;58.30;;;;;;5004868;28;20285;-57
2022/02/19 04:48:10;;;;;;;8.17;2.20;;;4.80;58.30;;;;;;5006691;28;20574;-57
2022/02/19 04:50:36;;;;;;;15.67;2.47;;;4.80;57.80;;;;;;5003782;28;20175;-59
2022/02/19 04:53:02;;;;;;;12.10;2.00;;;4.80;57.70;;;;;;5009889;28;20186;-58
2022/02/19 04:55:27;;;;;;;11.77;2.50;;;4.80;57.60;;;;;;5019092;28;20297;-59
2022/02/19 04:57:53;;;;;;;8.00;1.77;;;4.80;57.70;;;;;;5034101;28;20319;-57
2022/02/19 05:00:19;;;;;;;10.93;2.10;;;4.80;57.40;;;;;;5004485;28;20703;-59
2022/02/19 05:02:45;;;;;;;6.07;2.40;;;4.70;57.30;;;;;;5007277;28;20179;-56
2022/02/19 05:05:11;;;;;;;12.93;3.10;;;4.70;57.50;;;;;;5017876;28;20447;-61
2022/02/19 05:07:37;;;;;;;11.83;2.47;;;4.70;57.30;;;;;;5031287;28;20192;-61
2022/02/19 05:10:06;;;;;;;6.03;2.00;;;4.70;56.90;;;;;;5014153;28;20964;-60
2022/02/19 05:12:32;;;;;;;12.30;2.33;;;4.70;56.80;;;;;;5011607;28;20954;-59
2022/02/19 05:14:58;;;;;;;4.90;1.57;;;4.70;57.30;;;;;;5008135;28;20439;-59
2022/02/19 05:17:24;;;;;;;8.13;1.93;;;4.70;56.90;;;;;;5006949;28;20510;-59
2022/02/19 05:19:50;;;;;;;8.10;1.83;;;4.70;57.00;;;;;;5009310;28;21132;-56
2022/02/19 05:22:16;;;;;;;7.93;1.90;;;4.70;56.70;;;;;;5010381;28;20530;-59
2022/02/19 05:24:42;;;;;;;14.47;3.07;;;4.70;56.90;;;;;;5018560;28;20219;-58
2022/02/19 05:27:08;;;;;;;7.60;2.07;;;4.60;57.00;;;;;;5018219;28;20438;-58
2022/02/19 05:29:33;;;;;;;11.27;2.33;;;4.60;57.20;;;;;;5036758;28;20665;-58
2022/02/19 05:31:59;;;;;;;9.03;2.17;;;4.60;57.30;;;;;;5031496;28;20196;-60
2022/02/19 05:34:25;;;;;;;10.63;2.53;;;4.60;57.50;;;;;;5031563;28;20298;-59
2022/02/19 05:36:50;;;;;;;9.10;2.47;;;4.60;57.70;;;;;;5031335;28;20172;-57
2022/02/19 05:39:16;;;;;;;10.27;2.60;;;4.50;57.30;;;;;;5007720;28;20264;-59
2022/02/19 05:41:42;;;;;;;11.13;1.93;;;4.50;57.40;;;;;;5004829;28;20180;-56
2022/02/19 05:44:08;;;;;;;7.77;2.07;;;4.50;57.60;;;;;;5007186;28;20676;-59
2022/02/19 05:46:35;;;;;;;9.40;2.37;;;4.50;57.40;;;;;;5011218;28;20176;-59
2022/02/19 05:49:02;;;;;;;16.60;2.60;;;4.50;57.30;;;;;;5011826;28;20554;-59
2022/02/19 05:51:28;;;;;;;8.10;2.53;;;4.50;57.30;;;;;;5009076;28;20427;-56
2022/02/19 05:53:55;;;;;;;7.97;2.07;;;4.40;57.10;;;;;;5013136;28;20430;-60
2022/02/19 05:56:21;;;;;;;9.57;2.20;;;4.40;57.00;;;;;;5014900;28;20427;-59
2022/02/19 05:58:47;;;;;;;5.07;2.07;;;4.40;57.10;;;;;;5009131;28;21466;-59
2022/02/19 06:01:13;;;;;;;11.83;3.53;;;4.30;57.00;;;;;;5008950;28;20806;-59
2022/02/19 06:03:42;;;;;;;17.47;3.03;;;4.30;56.80;;;;;;5010018;28;20471;-58
2022/02/19 06:06:08;;;;;;;9.73;2.90;;;4.30;57.10;;;;;;5022917;28;20887;-58
2022/02/19 06:08:33;;;;;;;8.67;2.10;;;4.30;57.10;;;;;;5037257;28;20411;-58
2022/02/19 06:10:59;;;;;;;9.50;1.97;;;4.30;57.50;;;;;;5045304;28;20184;-61
2022/02/19 06:13:25;;;;;;;12.70;2.50;;;4.30;57.20;;;;;;5038776;28;20554;-59
2022/02/19 06:15:50;;;;;;;8.77;2.30;;;4.20;57.30;;;;;;5020838;28;20649;-58
2022/02/19 06:18:17;;;;;;;12.40;2.23;;;4.20;57.20;;;;;;5009565;28;20252;-57
2022/02/19 06:20:43;;;;;;;12.33;2.80;;;4.20;57.50;;;;;;5014036;28;20187;-58
2022/02/19 06:23:09;;;;;;;11.33;2.67;;;4.20;57.30;;;;;;5012239;28;20455;-58
2022/02/19 06:25:35;;;;;;;7.43;2.10;;;4.20;57.40;;;;;;5006922;28;20218;-58
2022/02/19 06:28:00;;;;;;;12.67;2.90;;;4.10;57.40;;;;;;5011213;28;20429;-57
2022/02/19 06:30:26;;;;;;;7.83;2.43;;;4.10;57.50;;;;;;5010130;28;20271;-58
2022/02/19 06:32:52;;;;;;;8.77;2.70;;;4.10;57.60;;;;;;5012862;28;20173;-57
2022/02/19 06:35:18;;;;;;;5.87;2.10;;;4.10;57.70;;;;;;5010122;28;20428;-60
2022/02/19 06:37:46;;;;;;;16.00;2.60;;;4.10;58.30;;;;;;5007428;28;20667;-58
2022/02/19 06:40:14;;;;;;;8.93;2.80;;;4.10;57.70;;;;;;5012030;28;20442;-58
2022/02/19 06:42:40;;;;;;;8.33;3.07;;;4.10;57.60;;;;;;5008381;28;20458;-58
2022/02/19 06:45:06;;;;;;;8.67;2.23;;;4.20;57.70;;;;;;5009161;28;20865;-60
2022/02/19 06:47:34;;;;;;;6.97;2.20;;;4.20;57.90;;;;;;5011496;28;20514;-60
2022/02/19 06:50:01;;;;;;;16.50;2.93;;;4.20;57.90;;;;;;5010407;28;20964;-60
2022/02/19 06:52:27;;;;;;;8.33;2.63;;;4.20;57.90;;;;;;5007087;28;20423;-58
2022/02/19 06:54:53;;;;;;;8.03;2.20;;;4.20;58.20;;;;;;5003355;28;20470;-61
2022/02/19 06:57:21;;;;;;;9.03;2.73;;;4.20;58.30;;;;;;5012267;28;20966;-58
2022/02/19 06:59:48;;;;;;;18.23;2.90;;;4.20;58.10;;;;;;5013670;28;20494;-57
2022/02/19 07:02:14;;;;;;;9.50;2.90;;;4.20;58.30;;;;;;5004540;28;20439;-60
2022/02/19 07:04:40;;;;;;;10.13;2.47;;;4.20;58.20;;;;;;5008299;28;20473;-61
2022/02/19 07:07:05;;;;;;;11.00;2.47;;;4.20;58.40;;;;;;5005948;28;20191;-59
2022/02/19 07:09:31;;;;;;;9.70;2.37;;;4.20;58.20;;;;;;5007416;28;20219;-60
2022/02/19 07:11:57;;;;;;;7.73;2.30;;;4.20;58.30;;;;;;5006284;28;20185;-59
2022/02/19 07:14:24;;;;;;;12.60;2.67;;;4.20;58.10;;;;;;5008573;28;20215;-57
2022/02/19 07:16:50;;;;;;;6.07;2.13;;;4.20;57.90;;;;;;5030483;28;20165;-60
2022/02/19 07:19:16;;;;;;;5.87;1.83;;;4.30;57.90;;;;;;5015996;28;20481;-61
2022/02/19 07:21:41;;;;;;;9.17;2.57;;;4.30;58.00;;;;;;5010381;28;20319;-61
2022/02/19 07:24:08;;;;;;;7.57;2.30;;;4.30;57.90;;;;;;5004923;28;20192;-59
2022/02/19 07:26:34;;;;;;;6.97;3.00;;;4.40;57.60;;;;;;5008958;28;20192;-57
2022/02/19 07:29:01;;;;;;;5.80;1.97;;;4.40;58.00;;;;;;5007255;28;20460;-58
2022/02/19 07:31:27;;;;;;;4.57;2.40;;;4.50;58.40;;;;;;4999571;28;20210;-60
2022/02/19 07:33:52;;;;;;;14.50;2.40;;;4.50;58.50;;;;;;5009276;28;20983;-58
2022/02/19 07:36:18;;;;;;;7.70;2.60;;;4.60;57.90;;;;;;5004435;28;20779;-62
2022/02/19 07:38:44;;;;;;;9.07;2.23;;;4.70;58.00;;;;;;5004018;28;20200;-62
2022/02/19 07:41:09;;;;;;;16.73;3.23;;;4.70;57.40;;;;;;5014024;28;20435;-61
2022/02/19 07:43:35;;;;;;;9.90;2.57;;;4.70;57.20;;;;;;5022961;28;20263;-58
2022/02/19 07:46:02;;;;;;;4.50;1.70;;;4.70;57.20;;;;;;5025725;28;20211;-59
2022/02/19 07:48:27;;;;;;;13.83;2.67;;;4.80;57.10;;;;;;5024599;28;20192;-58
2022/02/19 07:59:06;;;;;;;9.93;2.40;;;4.90;56.40;;;;;;5013445;28;20438;-58
2022/02/19 08:01:31;;;;;;;13.70;4.90;;;4.90;56.00;;;;;;5027560;28;20439;-58
2022/02/19 08:03:57;;;;;;;8.47;2.47;;;4.90;56.20;;;;;;5025014;28;20269;-58
2022/02/19 08:06:22;;;;;;;8.93;1.80;;;5.00;56.30;;;;;;5028565;28;20291;-62
2022/02/19 08:08:48;;;;;;;12.13;2.30;;;5.00;56.00;;;;;;5012704;28;20247;-57
2022/02/19 08:11:14;;;;;;;9.50;2.00;;;5.00;55.90;;;;;;5001025;28;20614;-58
2022/02/19 08:13:41;;;;;;;14.00;2.50;;;5.10;55.40;;;;;;5001943;28;20644;-54
2022/02/19 08:16:08;;;;;;;10.17;2.20;;;5.10;55.40;;;;;;5002679;28;20443;-55
2022/02/19 08:18:34;;;;;;;9.67;2.77;;;5.10;55.70;;;;;;5002409;28;20459;-58
2022/02/19 08:21:00;;;;;;;7.03;1.70;;;5.10;55.10;;;;;;4997247;28;20797;-57
2022/02/19 08:23:26;;;;;;;7.10;1.70;;;5.00;54.10;;;;;;5007733;28;20451;-57
2022/02/19 08:25:52;;;;;;;8.33;2.13;;;5.00;54.00;;;;;;5019666;28;20513;-58
2022/02/19 08:28:18;;;;;;;8.63;2.17;;;5.10;54.00;;;;;;5006787;28;20176;-57
2022/02/19 08:30:45;;;;;;;6.37;1.80;;;5.10;54.20;;;;;;5008850;28;20176;-55
2022/02/19 08:33:12;;;;;;;7.33;2.63;;;5.20;53.50;;;;;;5010675;28;20282;-56
2022/02/19 08:35:39;;;;;;;12.33;2.30;;;5.20;53.70;;;;;;5015283;28;20442;-58
2022/02/19 08:38:07;;;;;;;8.50;2.47;;;5.30;53.90;;;;;;5020445;28;20427;-56
2022/02/19 08:40:33;;;;;;;3.90;1.70;;;5.40;54.20;;;;;;5011338;28;20458;-57
2022/02/19 08:42:59;;;;;;;7.57;1.70;;;5.50;53.20;;;;;;5019754;28;20423;-59
2022/02/19 08:45:25;;;;;;;5.43;1.70;;;5.50;52.60;;;;;;5027822;23;20503;-61
2022/02/19 08:47:53;;;;;;;8.20;1.77;;;5.60;52.80;;;;;;5000535;28;20252;-63
2022/02/19 08:50:20;;;;;;;10.97;2.17;;;5.60;52.70;;;;;;5006511;28;20423;-62
2022/02/19 08:52:48;;;;;;;6.67;1.87;;;5.70;52.10;;;;;;5005234;28;20481;-62
2022/02/19 08:55:16;;;;;;;14.97;2.23;;;5.70;51.90;;;;;;5010514;28;20466;-62
2022/02/19 08:57:42;;;;;;;7.90;2.17;;;5.70;51.60;;;;;;5012471;28;20466;-62
2022/02/19 09:00:10;;;;;;;10.40;2.20;;;5.70;50.70;;;;;;5007390;28;20561;-62
2022/02/19 09:02:36;;;;;;;3.83;2.30;;;5.70;50.30;;;;;;5010937;28;20433;-62
2022/02/19 09:05:02;;;;;;;8.33;1.97;;;5.70;49.60;;;;;;4999616;28;20471;-62
2022/02/19 09:07:28;;;;;;;6.83;2.33;;;5.70;50.10;;;;;;5005706;28;20220;-62
2022/02/19 09:09:54;;;;;;;4.17;1.80;;;5.70;50.00;;;;;;5007120;28;21452;-62
2022/02/19 09:12:21;;;;;;;9.70;2.30;;;5.70;49.60;;;;;;5013681;28;20185;-59
2022/02/19 09:14:47;;;;;;;6.20;1.83;;;5.80;49.90;;;;;;5008941;28;20627;-62
2022/02/19 09:17:12;;;;;;;7.03;1.83;;;5.80;50.10;;;;;;5003767;28;20439;-59
2022/02/19 09:19:38;;;;;;;6.63;2.03;;;5.90;49.90;;;;;;5008867;28;20615;-57
2022/02/19 09:22:05;;;;;;;6.17;2.03;;;5.90;49.80;;;;;;5020744;28;20180;-56
2022/02/19 09:24:31;;;;;;;10.37;1.80;;;6.00;49.70;;;;;;5007660;28;20215;-58
2022/02/19 09:26:57;;;;;;;7.60;1.70;;;6.00;49.00;;;;;;5007413;28;20423;-57
2022/02/19 09:29:24;;;;;;;9.93;2.00;;;6.00;49.00;;;;;;4999835;28;20184;-58
2022/02/19 09:31:50;;;;;;;5.90;1.90;;;6.10;48.90;;;;;;5005272;28;20457;-57
2022/02/19 09:34:16;;;;;;;8.33;1.70;;;6.00;49.00;;;;;;5005900;28;20457;-57
2022/02/19 09:36:41;;;;;;;10.53;2.93;;;5.90;49.20;;;;;;5008245;28;20487;-61
2022/02/19 09:39:07;;;;;;;12.90;2.00;;;5.90;49.80;;;;;;5004132;28;20777;-61
2022/02/19 09:41:33;;;;;;;7.23;2.40;;;5.90;48.70;;;;;;5006612;28;20708;-61
2022/02/19 09:44:03;;;;;;;11.70;2.53;;;5.90;48.20;;;;;;5003753;28;20212;-60
2022/02/19 09:46:31;;;;;;;4.33;1.93;;;5.80;48.50;;;;;;5008000;28;20557;-61
2022/02/19 09:48:57;;;;;;;7.20;1.90;;;5.70;48.40;;;;;;4996195;28;20467;-61
2022/02/19 09:51:23;;;;;;;8.27;2.20;;;5.70;48.40;;;;;;4994731;28;20426;-61
2022/02/19 09:53:49;;;;;;;8.17;2.33;;;5.60;48.70;;;;;;4993939;28;20471;-61
2022/02/19 09:56:14;;;;;;;8.20;1.80;;;5.60;48.60;;;;;;4996250;28;20885;-61
2022/02/19 09:58:43;;;;;;;4.93;1.77;;;5.70;48.30;;;;;;4996742;28;20822;-61
2022/02/19 10:01:17;;;;;;;5.30;1.70;;;5.90;48.00;;;;;;5000655;28;20234;-61
2022/02/19 10:03:47;;;;;;;9.07;1.60;;;6.00;47.70;;;;;;5000373;28;21187;-62
2022/02/19 10:06:14;;;;;;;5.20;1.70;;;6.10;47.80;;;;;;4999459;28;21039;-62
2022/02/19 10:08:41;;;;;;;9.13;1.90;;;6.30;48.00;;;;;;4997893;28;20583;-61
2022/02/19 10:11:12;;;;;;;4.60;1.80;;;6.40;47.80;;;;;;4996359;28;21008;-61
2022/02/19 10:13:41;;;;;;;5.47;1.47;;;6.50;47.60;;;;;;4997616;28;20419;-61
2022/02/19 10:16:09;;;;;;;6.80;1.90;;;6.50;47.10;;;;;;4998091;28;20439;-61
2022/02/19 10:18:34;;;;;;;5.83;1.80;;;6.50;47.20;;;;;;4992850;28;20429;-61
2022/02/19 10:21:16;;;;;;;5.90;1.53;;;6.70;47.20;;;;;;5003254;28;20438;-61
2022/02/19 10:23:47;;;;;;;4.90;2.03;;;6.80;46.30;;;;;;4996547;28;20209;-61
2022/02/19 10:26:16;;;;;;;6.60;2.30;;;6.90;46.00;;;;;;4996791;28;20969;-61
2022/02/19 10:29:05;;;;;;;3.23;1.50;;;7.10;45.80;;;;;;4997626;28;20524;-61
2022/02/19 10:31:32;;;;;;;5.47;1.70;;;7.30;45.70;;;;;;5011326;28;21144;-61
2022/02/19 10:34:08;;;;;;;5.07;1.90;;;7.50;45.60;;;;;;5003614;28;20540;-61
2022/02/19 10:36:50;;;;;;;8.30;1.90;;;7.60;43.60;;;;;;5021587;28;20429;-62
2022/02/19 10:39:30;;;;;;;6.63;1.30;;;7.50;43.60;;;;;;4990435;28;20408;-61
2022/02/19 10:42:02;;;;;;;4.37;1.50;;;7.40;43.40;;;;;;5026755;28;20425;-61
2022/02/19 10:44:29;;;;;;;6.70;1.47;;;7.30;43.10;;;;;;4992242;28;20451;-61
2022/02/19 10:46:57;;;;;;;7.50;1.67;;;7.30;43.60;;;;;;5011142;28;20423;-61
2022/02/19 10:49:24;;;;;;;4.60;1.80;;;7.10;43.20;;;;;;5012222;28;20416;-61
2022/02/19 10:51:51;;;;;;;3.03;1.30;;;7.00;43.50;;;;;;5008571;28;20470;-61
2022/02/19 10:54:23;;;;;;;3.07;1.50;;;6.90;43.20;;;;;;5009699;28;20481;-61
2022/02/19 10:56:49;;;;;;;6.07;1.50;;;6.90;43.20;;;;;;5025814;28;20774;-61
2022/02/19 10:59:18;;;;;;;1.97;1.50;;;6.90;42.70;;;;;;5018082;28;20507;-61
2022/02/19 11:01:43;;;;;;;4.30;1.60;;;6.80;43.10;;;;;;5020341;28;20420;-61
2022/02/19 11:04:11;;;;;;;2.80;1.63;;;6.80;43.00;;;;;;5020354;28;20469;-62
2022/02/19 11:06:37;;;;;;;5.43;1.83;;;6.80;43.00;;;;;;5009922;28;20583;-61
2022/02/19 11:09:05;;;;;;;4.50;1.60;;;6.80;43.10;;;;;;5007841;28;20420;-61
2022/02/19 11:11:39;;;;;;;2.73;1.47;;;6.70;43.50;;;;;;5021424;28;20426;-61
2022/02/19 11:14:06;;;;;;;4.70;1.60;;;6.70;43.70;;;;;;5016869;28;20538;-61
2022/02/19 11:16:32;;;;;;;7.00;1.60;;;6.80;43.00;;;;;;5011072;28;20482;-61
2022/02/19 11:18:59;;;;;;;6.93;1.60;;;6.80;42.30;;;;;;5012744;28;20430;-61
2022/02/19 11:21:27;;;;;;;3.57;1.67;;;6.80;43.00;;;;;;5022961;28;20419;-61
2022/02/19 11:23:56;;;;;;;5.33;1.30;;;7.00;43.00;;;;;;5021824;28;20477;-61
2022/02/19 11:26:23;;;;;;;6.30;1.67;;;7.20;42.80;;;;;;5028580;28;20465;-61
2022/02/19 11:28:51;;;;;;;1.50;1.30;;;7.70;43.00;;;;;;5008530;28;20486;-62
2022/02/19 11:31:19;;;;;;;2.77;1.30;;;7.80;41.90;;;;;;5017197;28;20508;-61
2022/02/19 11:33:55;;;;;;;2.60;1.73;;;8.20;41.50;;;;;;5029159;28;20463;-61
2022/02/19 11:36:27;;;;;;;4.10;1.50;;;8.90;40.80;;;;;;5021866;28;20415;-61
2022/02/19 11:38:54;;;;;;;1.70;1.50;;;9.60;39.50;;;;;;5000377;28;20962;-62
2022/02/19 11:41:45;;;;;;;4.63;1.73;;;9.90;38.50;;;;;;5011075;28;20477;-61
2022/02/19 11:44:20;;;;;;;4.20;1.20;;;10.20;36.10;;;;;;5015979;28;20473;-62
2022/02/19 11:46:46;;;;;;;3.63;1.40;;;10.60;35.10;;;;;;5011682;28;21121;-62
2022/02/19 11:49:21;;;;;;;2.67;1.20;;;11.00;34.30;;;;;;5007498;28;20435;-61
2022/02/19 11:52:06;;;;;;;2.73;1.40;;;10.90;34.00;;;;;;5010325;28;20419;-63
2022/02/19 11:54:32;;;;;;;4.80;1.70;;;11.20;34.10;;;;;;5026912;28;20446;-62
2022/02/19 11:57:10;;;;;;;2.10;1.30;;;11.30;34.10;;;;;;5018019;28;20795;-62
2022/02/19 11:59:47;;;;;;;2.80;1.30;;;11.70;34.00;;;;;;5010328;28;20427;-62
2022/02/19 12:02:23;;;;;;;2.77;1.60;;;12.10;34.00;;;;;;4993750;28;20415;-62
2022/02/19 12:05:23;;;;;;;7.53;1.90;;;12.80;33.60;;;;;;5011146;28;20558;-60
2022/02/19 12:07:59;;;;;;;3.90;1.70;;;13.50;32.60;;;;;;5022641;28;20489;-60
2022/02/19 12:10:25;;;;;;;2.67;1.17;;;13.80;31.40;;;;;;5011305;28;20510;-61
2022/02/19 12:13:11;;;;;;;3.13;1.37;;;14.20;30.90;;;;;;5006885;28;20408;-60
2022/02/19 12:15:38;;;;;;;3.90;1.60;;;14.80;29.20;;;;;;5008254;28;20443;-61
2022/02/19 12:18:04;;;;;;;2.63;1.00;;;15.10;29.10;;;;;;5008963;28;20438;-61
2022/02/19 12:20:35;;;;;;;4.47;1.40;;;15.40;28.50;;;;;;4998248;28;20439;-61
2022/02/19 12:23:04;;;;;;;2.70;1.13;;;15.80;28.70;;;;;;5009274;28;20431;-62
2022/02/19 12:25:55;;;;;;;3.20;1.77;;;16.10;28.10;;;;;;5021321;28;20505;-62
2022/02/19 12:28:22;;;;;;;2.37;1.33;;;16.60;27.50;;;;;;5027289;28;20986;-62
2022/02/19 12:31:11;;;;;;;1.93;1.00;;;17.00;27.30;;;;;;5015808;28;20432;-62
2022/02/19 12:33:37;;;;;;;5.53;1.20;;;17.20;26.40;;;;;;5009163;28;20419;-63
2022/02/19 12:36:09;;;;;;;1.37;1.00;;;17.30;26.40;;;;;;5008768;28;20431;-62
2022/02/19 12:38:35;;;;;;;4.03;1.30;;;17.50;25.80;;;;;;5017353;28;20184;-62
2022/02/19 12:41:01;;;;;;;3.03;1.40;;;17.70;26.10;;;;;;5018689;28;20422;-63
2022/02/19 12:43:27;;;;;;;6.77;1.60;;;18.00;26.10;;;;;;5008900;28;20418;-63
2022/02/19 12:45:53;;;;;;;4.30;1.20;;;18.00;25.00;;;;;;5019870;28;20200;-61
2022/02/19 12:48:18;;;;;;;2.43;1.07;;;17.90;25.30;;;;;;5011069;28;20173;-61
2022/02/19 12:50:55;;;;;;;2.73;1.27;;;17.60;25.20;;;;;;5014213;28;20427;-61
2022/02/19 12:53:22;;;;;;;3.13;1.30;;;17.40;25.70;;;;;;5024357;28;20190;-61
2022/02/19 12:55:53;;;;;;;4.40;1.20;;;17.30;26.30;;;;;;5019893;28;20430;-62
2022/02/19 12:58:20;;;;;;;1.80;1.13;;;17.10;25.50;;;;;;5001908;28;20519;-62
2022/02/19 13:00:55;;;;;;;4.03;1.50;;;16.90;25.50;;;;;;4990027;28;20408;-62
2022/02/19 13:03:21;;;;;;;2.63;1.23;;;16.70;26.00;;;;;;5006882;28;20462;-63